Ferrellsburg, West Virginia
Current Conditions -  °F | °C
As of 4:15 PM on Monday 22 Dec 2014 (Local Time) from KSJS Reporting Station
Scattered Clouds Scattered Clouds  
Wind Chill: 54°   Ceiling: Unl
Heat Index: 54°   Visibility: 10mi
Dew Point: 40°   Wind: 8mph
Humidity: 61%   Direction: 100°E
Pressure: 29.86"   Gusts: NA
Location:  37.9989°N, 82.1851°W
Report Text: KSJS 222115Z AUTO 10007KT 10SM SCT095 12/05 A2986 RMK AO2 T01210047
Loading
Personal Weather Stations






























Interactive Weather Map New forecast layout! Learn more

10-Day Weather Forecast

Advertisements
Track Severe Weather on mobile